sensor_id;sensor_type;location;lat;lon;timestamp;P1;durP1;ratioP1;P2;durP2;ratioP2
21494;SDS011;10909;53.590;10.054;2022-11-04T00:01:48;5.20;;;2.10;;
21494;SDS011;10909;53.590;10.054;2022-11-04T00:04:16;3.30;;;2.20;;
21494;SDS011;10909;53.590;10.054;2022-11-04T00:06:43;3.60;;;2.03;;
21494;SDS011;10909;53.590;10.054;2022-11-04T00:09:10;3.90;;;2.10;;
21494;SDS011;10909;53.590;10.054;2022-11-04T00:11:39;3.27;;;2.00;;
21494;SDS011;10909;53.590;10.054;2022-11-04T00:14:23;3.10;;;1.97;;
21494;SDS011;10909;53.590;10.054;2022-11-04T00:16:49;3.07;;;2.10;;
21494;SDS011;10909;53.590;10.054;2022-11-04T00:19:33;4.00;;;2.23;;
21494;SDS011;10909;53.590;10.054;2022-11-04T00:22:18;4.37;;;2.10;;
21494;SDS011;10909;53.590;10.054;2022-11-04T00:25:02;3.57;;;2.10;;
21494;SDS011;10909;53.590;10.054;2022-11-04T00:27:48;2.50;;;2.13;;
21494;SDS011;10909;53.590;10.054;2022-11-04T00:30:32;3.40;;;2.20;;
21494;SDS011;10909;53.590;10.054;2022-11-04T00:32:58;3.60;;;2.37;;
21494;SDS011;10909;53.590;10.054;2022-11-04T00:36:02;4.33;;;2.30;;
21494;SDS011;10909;53.590;10.054;2022-11-04T00:38:28;2.40;;;1.97;;
21494;SDS011;10909;53.590;10.054;2022-11-04T00:40:54;4.00;;;2.67;;
21494;SDS011;10909;53.590;10.054;2022-11-04T00:43:20;4.70;;;2.40;;
21494;SDS011;10909;53.590;10.054;2022-11-04T00:45:45;4.03;;;2.50;;
21494;SDS011;10909;53.590;10.054;2022-11-04T00:48:11;3.43;;;2.40;;
21494;SDS011;10909;53.590;10.054;2022-11-04T00:50:37;2.83;;;2.23;;
21494;SDS011;10909;53.590;10.054;2022-11-04T00:53:03;4.80;;;2.27;;
21494;SDS011;10909;53.590;10.054;2022-11-04T00:55:29;3.37;;;2.17;;
21494;SDS011;10909;53.590;10.054;2022-11-04T00:57:54;4.07;;;2.10;;
21494;SDS011;10909;53.590;10.054;2022-11-04T01:00:21;3.07;;;2.20;;
21494;SDS011;10909;53.590;10.054;2022-11-04T01:02:47;2.77;;;1.90;;
21494;SDS011;10909;53.590;10.054;2022-11-04T01:05:12;4.20;;;2.10;;
21494;SDS011;10909;53.590;10.054;2022-11-04T01:07:38;3.30;;;1.90;;
21494;SDS011;10909;53.590;10.054;2022-11-04T01:10:04;2.43;;;2.23;;
21494;SDS011;10909;53.590;10.054;2022-11-04T01:12:31;2.30;;;1.87;;
21494;SDS011;10909;53.590;10.054;2022-11-04T01:14:56;2.87;;;1.87;;
21494;SDS011;10909;53.590;10.054;2022-11-04T01:17:23;4.83;;;2.37;;
21494;SDS011;10909;53.590;10.054;2022-11-04T01:19:49;3.57;;;2.00;;
21494;SDS011;10909;53.590;10.054;2022-11-04T01:22:14;2.60;;;2.40;;
21494;SDS011;10909;53.590;10.054;2022-11-04T01:24:40;5.30;;;2.80;;
21494;SDS011;10909;53.590;10.054;2022-11-04T01:27:05;2.47;;;2.17;;
21494;SDS011;10909;53.590;10.054;2022-11-04T01:29:31;4.23;;;2.47;;
21494;SDS011;10909;53.590;10.054;2022-11-04T01:31:57;5.43;;;2.27;;
21494;SDS011;10909;53.590;10.054;2022-11-04T01:34:22;4.57;;;2.60;;
21494;SDS011;10909;53.590;10.054;2022-11-04T01:36:48;2.90;;;2.20;;
21494;SDS011;10909;53.590;10.054;2022-11-04T01:39:13;3.03;;;2.03;;
21494;SDS011;10909;53.590;10.054;2022-11-04T01:41:39;2.73;;;2.30;;
21494;SDS011;10909;53.590;10.054;2022-11-04T01:50:07;3.73;;;2.20;;
21494;SDS011;10909;53.590;10.054;2022-11-04T01:55:13;4.00;;;3.00;;
21494;SDS011;10909;53.590;10.054;2022-11-04T01:57:44;6.23;;;2.40;;
21494;SDS011;10909;53.590;10.054;2022-11-04T02:00:13;3.83;;;2.60;;
21494;SDS011;10909;53.590;10.054;2022-11-04T02:02:43;2.77;;;2.33;;
21494;SDS011;10909;53.590;10.054;2022-11-04T02:05:15;2.50;;;2.27;;
21494;SDS011;10909;53.590;10.054;2022-11-04T02:07:41;4.40;;;2.60;;
21494;SDS011;10909;53.590;10.054;2022-11-04T02:10:07;2.77;;;2.20;;
21494;SDS011;10909;53.590;10.054;2022-11-04T02:12:34;4.17;;;2.53;;
21494;SDS011;10909;53.590;10.054;2022-11-04T02:18:04;3.87;;;2.57;;
21494;SDS011;10909;53.590;10.054;2022-11-04T02:20:47;2.60;;;2.37;;
21494;SDS011;10909;53.590;10.054;2022-11-04T02:31:49;3.30;;;2.40;;
21494;SDS011;10909;53.590;10.054;2022-11-04T02:34:57;4.37;;;2.30;;
21494;SDS011;10909;53.590;10.054;2022-11-04T02:40:37;3.27;;;2.30;;
21494;SDS011;10909;53.590;10.054;2022-11-04T02:43:30;2.97;;;2.33;;
21494;SDS011;10909;53.590;10.054;2022-11-04T02:46:03;3.50;;;2.33;;
21494;SDS011;10909;53.590;10.054;2022-11-04T02:48:39;3.00;;;2.30;;
21494;SDS011;10909;53.590;10.054;2022-11-04T02:51:30;3.63;;;2.47;;
21494;SDS011;10909;53.590;10.054;2022-11-04T02:54:11;3.83;;;2.13;;
21494;SDS011;10909;53.590;10.054;2022-11-04T02:56:47;4.20;;;2.20;;
21494;SDS011;10909;53.590;10.054;2022-11-04T02:59:20;5.33;;;2.30;;
21494;SDS011;10909;53.590;10.054;2022-11-04T03:01:52;2.83;;;2.50;;
21494;SDS011;10909;53.590;10.054;2022-11-04T03:04:25;4.07;;;2.60;;
21494;SDS011;10909;53.590;10.054;2022-11-04T03:06:54;3.47;;;2.30;;
21494;SDS011;10909;53.590;10.054;2022-11-04T03:09:22;3.70;;;2.53;;
21494;SDS011;10909;53.590;10.054;2022-11-04T03:11:54;3.17;;;2.77;;
21494;SDS011;10909;53.590;10.054;2022-11-04T03:14:26;3.60;;;2.43;;
21494;SDS011;10909;53.590;10.054;2022-11-04T03:17:00;3.07;;;2.00;;
21494;SDS011;10909;53.590;10.054;2022-11-04T03:22:06;2.90;;;2.27;;
21494;SDS011;10909;53.590;10.054;2022-11-04T03:24:35;3.33;;;2.30;;
21494;SDS011;10909;53.590;10.054;2022-11-04T03:27:04;3.97;;;2.20;;
21494;SDS011;10909;53.590;10.054;2022-11-04T03:29:49;3.50;;;2.50;;
21494;SDS011;10909;53.590;10.054;2022-11-04T03:34:58;4.40;;;2.40;;
21494;SDS011;10909;53.590;10.054;2022-11-04T03:37:26;3.27;;;2.30;;
21494;SDS011;10909;53.590;10.054;2022-11-04T03:39:56;3.57;;;2.03;;
21494;SDS011;10909;53.590;10.054;2022-11-04T03:42:27;2.67;;;2.20;;
21494;SDS011;10909;53.590;10.054;2022-11-04T03:44:56;2.63;;;2.13;;
21494;SDS011;10909;53.590;10.054;2022-11-04T03:47:24;2.83;;;2.07;;
21494;SDS011;10909;53.590;10.054;2022-11-04T03:50:01;3.27;;;2.30;;
21494;SDS011;10909;53.590;10.054;2022-11-04T03:52:44;3.00;;;2.20;;
21494;SDS011;10909;53.590;10.054;2022-11-04T03:55:10;3.40;;;2.30;;
21494;SDS011;10909;53.590;10.054;2022-11-04T04:00:15;2.10;;;1.90;;
21494;SDS011;10909;53.590;10.054;2022-11-04T04:05:13;2.23;;;2.03;;
21494;SDS011;10909;53.590;10.054;2022-11-04T04:07:44;4.27;;;2.40;;
21494;SDS011;10909;53.590;10.054;2022-11-04T04:10:28;2.47;;;2.27;;
21494;SDS011;10909;53.590;10.054;2022-11-04T04:16:10;2.47;;;2.23;;
21494;SDS011;10909;53.590;10.054;2022-11-04T04:18:42;3.43;;;2.70;;
21494;SDS011;10909;53.590;10.054;2022-11-04T04:21:25;3.77;;;2.37;;
21494;SDS011;10909;53.590;10.054;2022-11-04T04:24:10;2.87;;;2.57;;
21494;SDS011;10909;53.590;10.054;2022-11-04T04:26:57;2.77;;;2.47;;
21494;SDS011;10909;53.590;10.054;2022-11-04T04:29:44;2.73;;;2.33;;
21494;SDS011;10909;53.590;10.054;2022-11-04T04:32:11;4.03;;;2.60;;
21494;SDS011;10909;53.590;10.054;2022-11-04T04:34:38;4.17;;;2.50;;
21494;SDS011;10909;53.590;10.054;2022-11-04T04:37:05;2.40;;;2.20;;
21494;SDS011;10909;53.590;10.054;2022-11-04T04:39:40;3.30;;;2.37;;
21494;SDS011;10909;53.590;10.054;2022-11-04T04:42:32;2.60;;;2.40;;
21494;SDS011;10909;53.590;10.054;2022-11-04T04:45:21;3.13;;;2.30;;
21494;SDS011;10909;53.590;10.054;2022-11-04T04:47:54;2.73;;;2.30;;
21494;SDS011;10909;53.590;10.054;2022-11-04T04:50:21;3.13;;;2.20;;
21494;SDS011;10909;53.590;10.054;2022-11-04T04:52:48;2.83;;;2.17;;
21494;SDS011;10909;53.590;10.054;2022-11-04T04:55:15;2.73;;;2.30;;
21494;SDS011;10909;53.590;10.054;2022-11-04T04:57:41;2.63;;;1.93;;
21494;SDS011;10909;53.590;10.054;2022-11-04T05:00:08;2.27;;;1.83;;
21494;SDS011;10909;53.590;10.054;2022-11-04T05:02:36;1.93;;;1.80;;
21494;SDS011;10909;53.590;10.054;2022-11-04T05:05:02;2.13;;;1.73;;
21494;SDS011;10909;53.590;10.054;2022-11-04T05:07:28;1.63;;;1.50;;
21494;SDS011;10909;53.590;10.054;2022-11-04T05:09:53;1.63;;;1.30;;
21494;SDS011;10909;53.590;10.054;2022-11-04T05:12:19;3.10;;;1.20;;
21494;SDS011;10909;53.590;10.054;2022-11-04T05:14:45;1.57;;;1.40;;
21494;SDS011;10909;53.590;10.054;2022-11-04T05:17:10;3.07;;;1.60;;
21494;SDS011;10909;53.590;10.054;2022-11-04T05:19:36;1.60;;;1.30;;
21494;SDS011;10909;53.590;10.054;2022-11-04T05:22:02;1.30;;;1.20;;
21494;SDS011;10909;53.590;10.054;2022-11-04T05:24:28;2.00;;;1.40;;
21494;SDS011;10909;53.590;10.054;2022-11-04T05:26:54;1.73;;;1.50;;
21494;SDS011;10909;53.590;10.054;2022-11-04T05:29:20;1.60;;;1.50;;
21494;SDS011;10909;53.590;10.054;2022-11-04T05:31:46;2.07;;;1.20;;
21494;SDS011;10909;53.590;10.054;2022-11-04T05:34:12;1.97;;;1.50;;
21494;SDS011;10909;53.590;10.054;2022-11-04T05:36:38;1.33;;;1.23;;
21494;SDS011;10909;53.590;10.054;2022-11-04T05:39:04;1.53;;;1.40;;
21494;SDS011;10909;53.590;10.054;2022-11-04T05:41:30;1.60;;;1.10;;
21494;SDS011;10909;53.590;10.054;2022-11-04T05:43:57;1.27;;;1.17;;
21494;SDS011;10909;53.590;10.054;2022-11-04T05:46:27;1.47;;;1.37;;
21494;SDS011;10909;53.590;10.054;2022-11-04T05:48:53;1.40;;;1.30;;
21494;SDS011;10909;53.590;10.054;2022-11-04T05:51:20;1.40;;;1.30;;
21494;SDS011;10909;53.590;10.054;2022-11-04T05:53:47;1.37;;;1.27;;
21494;SDS011;10909;53.590;10.054;2022-11-04T05:56:13;1.60;;;1.50;;
21494;SDS011;10909;53.590;10.054;2022-11-04T05:58:39;1.57;;;1.40;;
21494;SDS011;10909;53.590;10.054;2022-11-04T06:01:11;1.60;;;1.30;;
21494;SDS011;10909;53.590;10.054;2022-11-04T06:03:48;1.70;;;1.50;;
21494;SDS011;10909;53.590;10.054;2022-11-04T06:06:14;1.90;;;1.47;;
21494;SDS011;10909;53.590;10.054;2022-11-04T06:08:40;2.43;;;1.87;;
21494;SDS011;10909;53.590;10.054;2022-11-04T06:11:06;1.93;;;1.73;;
21494;SDS011;10909;53.590;10.054;2022-11-04T06:13:31;1.50;;;1.40;;
21494;SDS011;10909;53.590;10.054;2022-11-04T06:15:57;1.43;;;1.33;;
21494;SDS011;10909;53.590;10.054;2022-11-04T06:18:23;2.80;;;1.57;;
21494;SDS011;10909;53.590;10.054;2022-11-04T06:21:04;2.17;;;1.50;;
21494;SDS011;10909;53.590;10.054;2022-11-04T06:23:39;1.30;;;1.20;;
21494;SDS011;10909;53.590;10.054;2022-11-04T06:26:06;2.17;;;1.50;;
21494;SDS011;10909;53.590;10.054;2022-11-04T06:28:31;2.20;;;1.90;;
21494;SDS011;10909;53.590;10.054;2022-11-04T06:30:58;1.83;;;1.63;;
21494;SDS011;10909;53.590;10.054;2022-11-04T06:33:26;1.80;;;1.60;;
21494;SDS011;10909;53.590;10.054;2022-11-04T06:35:56;1.80;;;1.60;;
21494;SDS011;10909;53.590;10.054;2022-11-04T06:38:23;1.90;;;1.70;;
21494;SDS011;10909;53.590;10.054;2022-11-04T06:40:49;2.03;;;1.80;;
21494;SDS011;10909;53.590;10.054;2022-11-04T06:43:14;2.50;;;1.80;;
21494;SDS011;10909;53.590;10.054;2022-11-04T06:45:40;2.23;;;2.00;;
21494;SDS011;10909;53.590;10.054;2022-11-04T06:48:06;2.00;;;1.90;;
21494;SDS011;10909;53.590;10.054;2022-11-04T06:50:31;2.23;;;1.90;;
21494;SDS011;10909;53.590;10.054;2022-11-04T06:52:57;2.43;;;2.00;;
21494;SDS011;10909;53.590;10.054;2022-11-04T06:55:23;2.30;;;2.10;;
21494;SDS011;10909;53.590;10.054;2022-11-04T06:57:49;2.43;;;2.10;;
21494;SDS011;10909;53.590;10.054;2022-11-04T07:00:15;4.13;;;2.23;;
21494;SDS011;10909;53.590;10.054;2022-11-04T07:02:41;2.60;;;2.03;;
21494;SDS011;10909;53.590;10.054;2022-11-04T07:05:06;2.00;;;1.90;;
21494;SDS011;10909;53.590;10.054;2022-11-04T07:07:32;3.00;;;2.10;;
21494;SDS011;10909;53.590;10.054;2022-11-04T07:09:58;2.10;;;1.90;;
21494;SDS011;10909;53.590;10.054;2022-11-04T07:12:24;2.53;;;2.23;;
21494;SDS011;10909;53.590;10.054;2022-11-04T07:14:50;2.60;;;2.40;;
21494;SDS011;10909;53.590;10.054;2022-11-04T07:17:16;2.97;;;2.30;;
21494;SDS011;10909;53.590;10.054;2022-11-04T07:19:42;2.73;;;2.53;;
21494;SDS011;10909;53.590;10.054;2022-11-04T07:22:08;2.37;;;2.17;;
21494;SDS011;10909;53.590;10.054;2022-11-04T07:24:33;2.97;;;2.30;;
21494;SDS011;10909;53.590;10.054;2022-11-04T07:26:59;2.40;;;2.20;;
21494;SDS011;10909;53.590;10.054;2022-11-04T07:29:25;3.00;;;2.30;;
21494;SDS011;10909;53.590;10.054;2022-11-04T07:31:51;3.27;;;2.23;;
21494;SDS011;10909;53.590;10.054;2022-11-04T07:34:18;3.30;;;2.37;;
21494;SDS011;10909;53.590;10.054;2022-11-04T07:36:43;2.20;;;2.00;;
21494;SDS011;10909;53.590;10.054;2022-11-04T07:39:09;3.20;;;2.30;;
21494;SDS011;10909;53.590;10.054;2022-11-04T07:41:34;2.20;;;2.00;;
21494;SDS011;10909;53.590;10.054;2022-11-04T07:44:01;2.47;;;2.27;;
21494;SDS011;10909;53.590;10.054;2022-11-04T07:46:29;2.43;;;2.23;;
21494;SDS011;10909;53.590;10.054;2022-11-04T07:48:58;2.60;;;2.40;;
21494;SDS011;10909;53.590;10.054;2022-11-04T07:51:24;3.10;;;2.80;;
21494;SDS011;10909;53.590;10.054;2022-11-04T07:53:50;2.33;;;2.10;;
21494;SDS011;10909;53.590;10.054;2022-11-04T07:56:16;2.77;;;2.53;;
21494;SDS011;10909;53.590;10.054;2022-11-04T07:58:43;2.43;;;2.23;;
21494;SDS011;10909;53.590;10.054;2022-11-04T08:01:13;3.33;;;3.03;;
21494;SDS011;10909;53.590;10.054;2022-11-04T08:03:40;2.67;;;2.47;;
21494;SDS011;10909;53.590;10.054;2022-11-04T08:06:07;3.37;;;2.70;;
21494;SDS011;10909;53.590;10.054;2022-11-04T08:08:33;3.67;;;2.90;;
21494;SDS011;10909;53.590;10.054;2022-11-04T08:11:00;2.90;;;2.60;;
21494;SDS011;10909;53.590;10.054;2022-11-04T08:13:35;3.37;;;3.07;;
21494;SDS011;10909;53.590;10.054;2022-11-04T08:16:05;2.87;;;2.67;;
21494;SDS011;10909;53.590;10.054;2022-11-04T08:18:34;2.73;;;2.53;;
21494;SDS011;10909;53.590;10.054;2022-11-04T08:21:01;5.10;;;2.70;;
21494;SDS011;10909;53.590;10.054;2022-11-04T08:23:28;2.73;;;2.53;;
21494;SDS011;10909;53.590;10.054;2022-11-04T08:25:55;2.90;;;2.60;;
21494;SDS011;10909;53.590;10.054;2022-11-04T08:28:20;3.13;;;2.60;;
21494;SDS011;10909;53.590;10.054;2022-11-04T08:30:55;3.17;;;2.90;;
21494;SDS011;10909;53.590;10.054;2022-11-04T08:33:27;2.70;;;2.27;;
21494;SDS011;10909;53.590;10.054;2022-11-04T08:35:54;3.20;;;2.83;;
21494;SDS011;10909;53.590;10.054;2022-11-04T08:38:22;2.80;;;2.47;;
21494;SDS011;10909;53.590;10.054;2022-11-04T08:40:48;3.20;;;2.90;;
21494;SDS011;10909;53.590;10.054;2022-11-04T08:43:14;3.87;;;2.63;;
21494;SDS011;10909;53.590;10.054;2022-11-04T08:45:40;3.03;;;2.67;;
21494;SDS011;10909;53.590;10.054;2022-11-04T08:48:10;3.10;;;2.63;;
21494;SDS011;10909;53.590;10.054;2022-11-04T08:50:36;3.30;;;2.73;;
21494;SDS011;10909;53.590;10.054;2022-11-04T08:53:02;3.97;;;2.70;;
21494;SDS011;10909;53.590;10.054;2022-11-04T08:55:29;3.17;;;2.83;;
21494;SDS011;10909;53.590;10.054;2022-11-04T08:57:56;3.33;;;2.80;;
21494;SDS011;10909;53.590;10.054;2022-11-04T09:00:21;2.97;;;2.70;;
21494;SDS011;10909;53.590;10.054;2022-11-04T09:02:47;3.17;;;2.80;;
21494;SDS011;10909;53.590;10.054;2022-11-04T09:05:13;2.97;;;2.77;;
21494;SDS011;10909;53.590;10.054;2022-11-04T09:07:39;3.03;;;2.57;;
21494;SDS011;10909;53.590;10.054;2022-11-04T09:10:05;2.80;;;2.60;;
21494;SDS011;10909;53.590;10.054;2022-11-04T09:12:31;2.80;;;2.60;;
21494;SDS011;10909;53.590;10.054;2022-11-04T09:14:57;3.73;;;2.43;;
21494;SDS011;10909;53.590;10.054;2022-11-04T09:17:23;2.30;;;2.10;;
21494;SDS011;10909;53.590;10.054;2022-11-04T09:19:49;3.40;;;2.87;;
21494;SDS011;10909;53.590;10.054;2022-11-04T09:22:15;2.50;;;2.30;;
21494;SDS011;10909;53.590;10.054;2022-11-04T09:24:40;2.90;;;2.70;;
21494;SDS011;10909;53.590;10.054;2022-11-04T09:27:06;2.70;;;2.50;;
21494;SDS011;10909;53.590;10.054;2022-11-04T09:29:32;2.70;;;2.50;;
21494;SDS011;10909;53.590;10.054;2022-11-04T09:31:58;2.67;;;2.47;;
21494;SDS011;10909;53.590;10.054;2022-11-04T09:34:25;3.03;;;2.65;;
21494;SDS011;10909;53.590;10.054;2022-11-04T09:36:53;3.23;;;2.70;;
21494;SDS011;10909;53.590;10.054;2022-11-04T09:39:20;2.75;;;2.38;;
21494;SDS011;10909;53.590;10.054;2022-11-04T09:41:53;2.50;;;2.30;;
21494;SDS011;10909;53.590;10.054;2022-11-04T09:44:32;3.07;;;2.40;;
21494;SDS011;10909;53.590;10.054;2022-11-04T09:47:07;2.20;;;2.00;;
21494;SDS011;10909;53.590;10.054;2022-11-04T09:49:37;2.30;;;2.10;;
21494;SDS011;10909;53.590;10.054;2022-11-04T09:52:11;2.63;;;1.90;;
21494;SDS011;10909;53.590;10.054;2022-11-04T09:58:03;2.00;;;1.80;;
21494;SDS011;10909;53.590;10.054;2022-11-04T10:00:31;2.10;;;1.90;;
21494;SDS011;10909;53.590;10.054;2022-11-04T10:03:04;2.10;;;1.90;;
21494;SDS011;10909;53.590;10.054;2022-11-04T10:05:51;2.72;;;2.30;;
21494;SDS011;10909;53.590;10.054;2022-11-04T10:16:40;1.95;;;1.85;;
21494;SDS011;10909;53.590;10.054;2022-11-04T10:22:31;2.40;;;2.20;;
21494;SDS011;10909;53.590;10.054;2022-11-04T10:27:29;3.70;;;2.30;;
21494;SDS011;10909;53.590;10.054;2022-11-04T10:30:00;2.50;;;2.30;;
21494;SDS011;10909;53.590;10.054;2022-11-04T10:32:31;3.43;;;1.60;;
21494;SDS011;10909;53.590;10.054;2022-11-04T10:37:30;1.93;;;1.83;;
21494;SDS011;10909;53.590;10.054;2022-11-04T10:40:19;2.40;;;2.20;;
21494;SDS011;10909;53.590;10.054;2022-11-04T10:42:53;2.57;;;1.77;;
21494;SDS011;10909;53.590;10.054;2022-11-04T10:45:22;2.10;;;1.90;;
21494;SDS011;10909;53.590;10.054;2022-11-04T10:53:11;1.90;;;1.70;;
21494;SDS011;10909;53.590;10.054;2022-11-04T10:58:28;2.00;;;1.80;;
21494;SDS011;10909;53.590;10.054;2022-11-04T11:00:56;1.88;;;1.77;;
21494;SDS011;10909;53.590;10.054;2022-11-04T11:03:29;2.00;;;1.80;;
21494;SDS011;10909;53.590;10.054;2022-11-04T11:06:08;3.45;;;1.45;;
21494;SDS011;10909;53.590;10.054;2022-11-04T11:08:37;1.40;;;1.30;;
21494;SDS011;10909;53.590;10.054;2022-11-04T11:11:06;1.42;;;1.33;;
21494;SDS011;10909;53.590;10.054;2022-11-04T11:13:36;1.40;;;1.30;;
21494;SDS011;10909;53.590;10.054;2022-11-04T11:18:35;1.52;;;1.25;;
21494;SDS011;10909;53.590;10.054;2022-11-04T11:21:10;2.13;;;1.30;;
21494;SDS011;10909;53.590;10.054;2022-11-04T11:26:05;1.77;;;1.17;;
21494;SDS011;10909;53.590;10.054;2022-11-04T11:28:32;1.65;;;1.15;;
21494;SDS011;10909;53.590;10.054;2022-11-04T11:31:02;1.10;;;1.00;;
21494;SDS011;10909;53.590;10.054;2022-11-04T11:33:39;1.90;;;1.60;;
21494;SDS011;10909;53.590;10.054;2022-11-04T11:39:00;1.67;;;1.33;;
21494;SDS011;10909;53.590;10.054;2022-11-04T11:44:27;2.05;;;1.27;;
21494;SDS011;10909;53.590;10.054;2022-11-04T11:50:32;1.88;;;1.00;;
21494;SDS011;10909;53.590;10.054;2022-11-04T11:52:45;1.25;;;0.90;;
21494;SDS011;10909;53.590;10.054;2022-11-04T11:55:27;1.23;;;1.02;;
21494;SDS011;10909;53.590;10.054;2022-11-04T12:00:47;1.27;;;0.95;;
21494;SDS011;10909;53.590;10.054;2022-11-04T12:03:46;1.35;;;1.00;;
21494;SDS011;10909;53.590;10.054;2022-11-04T12:09:03;1.42;;;0.88;;
21494;SDS011;10909;53.590;10.054;2022-11-04T12:12:01;1.00;;;0.77;;
21494;SDS011;10909;53.590;10.054;2022-11-04T12:22:50;2.47;;;0.80;;
21494;SDS011;10909;53.590;10.054;2022-11-04T12:25:43;2.15;;;0.80;;
21494;SDS011;10909;53.590;10.054;2022-11-04T12:31:33;1.25;;;0.80;;
21494;SDS011;10909;53.590;10.054;2022-11-04T12:34:26;1.63;;;0.68;;
21494;SDS011;10909;53.590;10.054;2022-11-04T12:37:03;0.80;;;0.63;;
21494;SDS011;10909;53.590;10.054;2022-11-04T12:42:38;1.70;;;0.93;;
21494;SDS011;10909;53.590;10.054;2022-11-04T12:47:58;1.95;;;0.85;;
21494;SDS011;10909;53.590;10.054;2022-11-04T12:58:38;2.08;;;0.90;;
21494;SDS011;10909;53.590;10.054;2022-11-04T13:01:09;2.22;;;0.90;;
21494;SDS011;10909;53.590;10.054;2022-11-04T13:06:25;1.92;;;1.08;;
21494;SDS011;10909;53.590;10.054;2022-11-04T13:09:17;3.85;;;1.42;;
21494;SDS011;10909;53.590;10.054;2022-11-04T13:11:56;2.28;;;1.40;;
21494;SDS011;10909;53.590;10.054;2022-11-04T13:14:41;2.00;;;1.20;;
21494;SDS011;10909;53.590;10.054;2022-11-04T13:17:34;1.10;;;1.00;;
21494;SDS011;10909;53.590;10.054;2022-11-04T13:22:35;2.70;;;1.15;;
21494;SDS011;10909;53.590;10.054;2022-11-04T13:27:45;2.53;;;1.20;;
21494;SDS011;10909;53.590;10.054;2022-11-04T13:30:20;2.03;;;0.93;;
21494;SDS011;10909;53.590;10.054;2022-11-04T13:36:21;2.28;;;1.05;;
21494;SDS011;10909;53.590;10.054;2022-11-04T13:39:05;2.03;;;0.82;;
21494;SDS011;10909;53.590;10.054;2022-11-04T13:44:26;2.42;;;0.90;;
21494;SDS011;10909;53.590;10.054;2022-11-04T13:46:58;2.03;;;0.70;;
21494;SDS011;10909;53.590;10.054;2022-11-04T13:49:28;1.98;;;0.70;;
21494;SDS011;10909;53.590;10.054;2022-11-04T13:52:11;1.70;;;0.90;;
21494;SDS011;10909;53.590;10.054;2022-11-04T13:57:19;1.05;;;0.70;;
21494;SDS011;10909;53.590;10.054;2022-11-04T14:16:11;2.70;;;0.93;;
21494;SDS011;10909;53.590;10.054;2022-11-04T14:18:45;2.40;;;0.80;;
21494;SDS011;10909;53.590;10.054;2022-11-04T14:21:13;1.55;;;0.95;;
21494;SDS011;10909;53.590;10.054;2022-11-04T14:23:45;3.60;;;0.98;;
21494;SDS011;10909;53.590;10.054;2022-11-04T14:26:14;2.50;;;1.23;;
21494;SDS011;10909;53.590;10.054;2022-11-04T14:28:49;3.22;;;1.20;;
21494;SDS011;10909;53.590;10.054;2022-11-04T14:31:43;3.03;;;1.15;;
21494;SDS011;10909;53.590;10.054;2022-11-04T14:34:29;1.80;;;0.88;;
21494;SDS011;10909;53.590;10.054;2022-11-04T14:36:55;3.15;;;1.05;;
21494;SDS011;10909;53.590;10.054;2022-11-04T14:39:23;1.00;;;0.70;;
21494;SDS011;10909;53.590;10.054;2022-11-04T14:47:19;1.73;;;0.90;;
21494;SDS011;10909;53.590;10.054;2022-11-04T14:49:59;2.35;;;1.10;;
21494;SDS011;10909;53.590;10.054;2022-11-04T14:52:31;1.13;;;0.55;;
21494;SDS011;10909;53.590;10.054;2022-11-04T14:55:05;2.25;;;0.80;;
21494;SDS011;10909;53.590;10.054;2022-11-04T14:57:45;1.52;;;0.77;;
21494;SDS011;10909;53.590;10.054;2022-11-04T15:02:48;0.50;;;0.50;;
21494;SDS011;10909;53.590;10.054;2022-11-04T15:05:28;2.05;;;0.73;;
21494;SDS011;10909;53.590;10.054;2022-11-04T15:07:57;1.05;;;0.68;;
21494;SDS011;10909;53.590;10.054;2022-11-04T15:10:24;0.85;;;0.68;;
21494;SDS011;10909;53.590;10.054;2022-11-04T15:12:52;1.77;;;0.80;;
21494;SDS011;10909;53.590;10.054;2022-11-04T15:15:37;1.92;;;0.77;;
21494;SDS011;10909;53.590;10.054;2022-11-04T15:18:12;1.33;;;0.70;;
21494;SDS011;10909;53.590;10.054;2022-11-04T15:20:44;1.42;;;0.77;;
21494;SDS011;10909;53.590;10.054;2022-11-04T15:23:14;1.23;;;0.80;;
21494;SDS011;10909;53.590;10.054;2022-11-04T15:25:47;2.28;;;1.13;;
21494;SDS011;10909;53.590;10.054;2022-11-04T15:28:24;1.90;;;0.80;;
21494;SDS011;10909;53.590;10.054;2022-11-04T15:31:13;2.40;;;0.90;;
21494;SDS011;10909;53.590;10.054;2022-11-04T15:33:42;1.20;;;0.80;;
21494;SDS011;10909;53.590;10.054;2022-11-04T15:36:32;1.15;;;0.60;;
21494;SDS011;10909;53.590;10.054;2022-11-04T15:39:07;2.78;;;0.98;;
21494;SDS011;10909;53.590;10.054;2022-11-04T15:41:38;2.90;;;1.00;;
21494;SDS011;10909;53.590;10.054;2022-11-04T15:44:25;1.85;;;0.85;;
21494;SDS011;10909;53.590;10.054;2022-11-04T15:46:53;1.27;;;0.80;;
21494;SDS011;10909;53.590;10.054;2022-11-04T15:49:30;1.80;;;1.40;;
21494;SDS011;10909;53.590;10.054;2022-11-04T15:52:04;2.20;;;1.27;;
21494;SDS011;10909;53.590;10.054;2022-11-04T15:54:42;3.10;;;1.88;;
21494;SDS011;10909;53.590;10.054;2022-11-04T15:57:14;2.47;;;2.17;;
21494;SDS011;10909;53.590;10.054;2022-11-04T15:59:50;4.60;;;2.30;;
21494;SDS011;10909;53.590;10.054;2022-11-04T16:02:23;4.43;;;2.30;;
21494;SDS011;10909;53.590;10.054;2022-11-04T16:05:15;4.53;;;2.20;;
21494;SDS011;10909;53.590;10.054;2022-11-04T16:07:51;5.15;;;1.98;;
21494;SDS011;10909;53.590;10.054;2022-11-04T16:10:22;2.87;;;2.03;;
21494;SDS011;10909;53.590;10.054;2022-11-04T16:13:00;5.05;;;2.70;;
21494;SDS011;10909;53.590;10.054;2022-11-04T16:18:52;3.45;;;2.15;;
21494;SDS011;10909;53.590;10.054;2022-11-04T16:23:59;4.75;;;3.22;;
21494;SDS011;10909;53.590;10.054;2022-11-04T16:27:01;4.75;;;2.78;;
21494;SDS011;10909;53.590;10.054;2022-11-04T16:29:28;3.70;;;2.33;;
21494;SDS011;10909;53.590;10.054;2022-11-04T16:32:19;5.17;;;1.77;;
21494;SDS011;10909;53.590;10.054;2022-11-04T16:34:59;4.13;;;1.67;;
21494;SDS011;10909;53.590;10.054;2022-11-04T16:37:30;3.73;;;1.97;;
21494;SDS011;10909;53.590;10.054;2022-11-04T16:39:56;5.07;;;1.80;;
21494;SDS011;10909;53.590;10.054;2022-11-04T16:42:22;1.73;;;1.25;;
21494;SDS011;10909;53.590;10.054;2022-11-04T16:44:51;2.73;;;1.30;;
21494;SDS011;10909;53.590;10.054;2022-11-04T16:47:21;2.57;;;1.30;;
21494;SDS011;10909;53.590;10.054;2022-11-04T16:49:49;4.17;;;1.50;;
21494;SDS011;10909;53.590;10.054;2022-11-04T16:52:17;3.40;;;1.20;;
21494;SDS011;10909;53.590;10.054;2022-11-04T16:54:49;2.80;;;1.20;;
21494;SDS011;10909;53.590;10.054;2022-11-04T16:57:15;2.67;;;1.20;;
21494;SDS011;10909;53.590;10.054;2022-11-04T16:59:40;1.87;;;1.10;;
21494;SDS011;10909;53.590;10.054;2022-11-04T17:02:22;2.50;;;1.03;;
21494;SDS011;10909;53.590;10.054;2022-11-04T17:04:55;2.73;;;1.30;;
21494;SDS011;10909;53.590;10.054;2022-11-04T17:07:21;2.30;;;1.50;;
21494;SDS011;10909;53.590;10.054;2022-11-04T17:09:47;4.70;;;1.67;;
21494;SDS011;10909;53.590;10.054;2022-11-04T17:12:12;1.77;;;1.27;;
21494;SDS011;10909;53.590;10.054;2022-11-04T17:14:38;3.30;;;1.40;;
21494;SDS011;10909;53.590;10.054;2022-11-04T17:17:04;1.40;;;1.23;;
21494;SDS011;10909;53.590;10.054;2022-11-04T17:19:30;3.20;;;1.63;;
21494;SDS011;10909;53.590;10.054;2022-11-04T17:21:56;3.73;;;1.57;;
21494;SDS011;10909;53.590;10.054;2022-11-04T17:24:24;4.20;;;1.60;;
21494;SDS011;10909;53.590;10.054;2022-11-04T17:26:49;4.87;;;1.80;;
21494;SDS011;10909;53.590;10.054;2022-11-04T17:29:15;4.03;;;2.90;;
21494;SDS011;10909;53.590;10.054;2022-11-04T17:31:40;7.37;;;3.73;;
21494;SDS011;10909;53.590;10.054;2022-11-04T17:34:07;5.53;;;4.03;;